Terminal Aerodrome Forecast
Issued by NWS

Home | Current Version | Previous Version | Text Only | Print | Product List | Glossary On
Versions: 1 2 3 4 5 6 7 8 9 10 11 12 13 14 15 16 17 18 19 20
000
FTUS46 KSGX 031735
TAFCRQ
TAF
KCRQ 031735Z 0318/0418 25008KT P6SM BKN030
      TEMPO 0318/0322 SCT030
     FM040300 VRB03KT P6SM OVC022
     FM041600 VRB05KT P6SM OVC030=

USA.gov is the U.S. government's official web portal to all federal, state and local government web resources and services.